sensor_id;sensor_type;location;lat;lon;timestamp;temperature;humidity
15815;DHT22;8008;50.024;8.172;2023-04-01T03:00:59;10.30;99.90
15815;DHT22;8008;50.024;8.172;2023-04-01T03:03:27;10.30;99.90
15815;DHT22;8008;50.024;8.172;2023-04-01T03:05:55;10.30;99.90
15815;DHT22;8008;50.024;8.172;2023-04-01T03:08:25;10.30;99.90
15815;DHT22;8008;50.024;8.172;2023-04-01T03:10:53;10.30;99.90
15815;DHT22;8008;50.024;8.172;2023-04-01T03:13:21;10.30;99.90
15815;DHT22;8008;50.024;8.172;2023-04-01T03:15:49;10.30;99.90
15815;DHT22;8008;50.024;8.172;2023-04-01T03:18:20;10.20;99.90
15815;DHT22;8008;50.024;8.172;2023-04-01T03:20:48;10.30;99.90
15815;DHT22;8008;50.024;8.172;2023-04-01T03:23:16;10.30;99.90
15815;DHT22;8008;50.024;8.172;2023-04-01T03:25:46;10.20;99.90
15815;DHT22;8008;50.024;8.172;2023-04-01T03:28:15;10.30;99.90
15815;DHT22;8008;50.024;8.172;2023-04-01T03:30:43;10.20;99.90
15815;DHT22;8008;50.024;8.172;2023-04-01T03:33:11;10.20;99.90
15815;DHT22;8008;50.024;8.172;2023-04-01T03:35:40;10.30;99.90
15815;DHT22;8008;50.024;8.172;2023-04-01T03:38:08;10.20;99.90
15815;DHT22;8008;50.024;8.172;2023-04-01T03:40:36;10.20;99.90
15815;DHT22;8008;50.024;8.172;2023-04-01T03:43:05;10.20;99.90
15815;DHT22;8008;50.024;8.172;2023-04-01T03:45:36;10.30;99.90
15815;DHT22;8008;50.024;8.172;2023-04-01T03:48:04;10.20;99.90
15815;DHT22;8008;50.024;8.172;2023-04-01T03:50:34;10.20;99.90
15815;DHT22;8008;50.024;8.172;2023-04-01T03:53:03;10.20;99.90
15815;DHT22;8008;50.024;8.172;2023-04-01T03:55:32;10.20;99.90
15815;DHT22;8008;50.024;8.172;2023-04-01T03:58:00;10.20;99.90
15815;DHT22;8008;50.024;8.172;2023-04-01T04:00:29;10.20;99.90
15815;DHT22;8008;50.024;8.172;2023-04-01T04:02:58;10.20;99.90
15815;DHT22;8008;50.024;8.172;2023-04-01T04:05:31;10.20;99.90
15815;DHT22;8008;50.024;8.172;2023-04-01T04:08:00;10.20;99.90
15815;DHT22;8008;50.024;8.172;2023-04-01T04:10:29;10.20;99.90
15815;DHT22;8008;50.024;8.172;2023-04-01T04:12:57;10.20;99.90
15815;DHT22;8008;50.024;8.172;2023-04-01T04:15:28;10.20;99.90
15815;DHT22;8008;50.024;8.172;2023-04-01T04:17:56;10.20;99.90
15815;DHT22;8008;50.024;8.172;2023-04-01T04:20:25;10.20;99.90
15815;DHT22;8008;50.024;8.172;2023-04-01T04:22:53;10.20;99.90
15815;DHT22;8008;50.024;8.172;2023-04-01T04:25:21;10.20;99.90
15815;DHT22;8008;50.024;8.172;2023-04-01T04:27:50;10.20;99.90
15815;DHT22;8008;50.024;8.172;2023-04-01T04:30:19;10.20;99.90
15815;DHT22;8008;50.024;8.172;2023-04-01T04:32:47;10.20;99.90
15815;DHT22;8008;50.024;8.172;2023-04-01T04:35:15;10.20;99.90
15815;DHT22;8008;50.024;8.172;2023-04-01T04:37:44;10.20;99.90
15815;DHT22;8008;50.024;8.172;2023-04-01T04:40:12;10.20;99.90
15815;DHT22;8008;50.024;8.172;2023-04-01T04:42:41;10.20;99.90
15815;DHT22;8008;50.024;8.172;2023-04-01T04:45:14;10.20;99.90
15815;DHT22;8008;50.024;8.172;2023-04-01T04:47:50;10.20;99.90
15815;DHT22;8008;50.024;8.172;2023-04-01T04:50:18;10.20;99.90
15815;DHT22;8008;50.024;8.172;2023-04-01T04:52:46;10.20;99.90
15815;DHT22;8008;50.024;8.172;2023-04-01T04:55:14;10.10;99.90
15815;DHT22;8008;50.024;8.172;2023-04-01T04:57:46;10.20;99.90
15815;DHT22;8008;50.024;8.172;2023-04-01T05:00:16;10.10;99.90
15815;DHT22;8008;50.024;8.172;2023-04-01T05:02:51;10.10;99.90
15815;DHT22;8008;50.024;8.172;2023-04-01T05:05:19;10.10;99.90
15815;DHT22;8008;50.024;8.172;2023-04-01T05:07:47;10.10;99.90
15815;DHT22;8008;50.024;8.172;2023-04-01T05:10:16;10.10;99.90
15815;DHT22;8008;50.024;8.172;2023-04-01T05:12:44;10.10;99.90
15815;DHT22;8008;50.024;8.172;2023-04-01T05:15:18;10.20;99.90
15815;DHT22;8008;50.024;8.172;2023-04-01T05:17:46;10.10;99.90
15815;DHT22;8008;50.024;8.172;2023-04-01T05:20:14;10.10;99.90
15815;DHT22;8008;50.024;8.172;2023-04-01T05:22:43;10.10;99.90
15815;DHT22;8008;50.024;8.172;2023-04-01T05:25:11;10.20;99.90
15815;DHT22;8008;50.024;8.172;2023-04-01T05:27:39;10.20;99.90
15815;DHT22;8008;50.024;8.172;2023-04-01T05:30:07;10.20;99.90
15815;DHT22;8008;50.024;8.172;2023-04-01T05:32:45;10.20;99.90
15815;DHT22;8008;50.024;8.172;2023-04-01T05:35:13;10.20;99.90
15815;DHT22;8008;50.024;8.172;2023-04-01T05:37:41;10.20;99.90
15815;DHT22;8008;50.024;8.172;2023-04-01T05:40:09;10.10;99.90
15815;DHT22;8008;50.024;8.172;2023-04-01T05:42:38;10.20;99.90
15815;DHT22;8008;50.024;8.172;2023-04-01T05:45:06;10.20;99.90
15815;DHT22;8008;50.024;8.172;2023-04-01T05:48:12;10.20;99.90
15815;DHT22;8008;50.024;8.172;2023-04-01T05:50:40;10.20;99.90
15815;DHT22;8008;50.024;8.172;2023-04-01T05:53:10;10.20;99.90
15815;DHT22;8008;50.024;8.172;2023-04-01T05:55:41;10.20;99.90
15815;DHT22;8008;50.024;8.172;2023-04-01T05:58:09;10.20;99.90
15815;DHT22;8008;50.024;8.172;2023-04-01T06:00:39;10.20;99.90
15815;DHT22;8008;50.024;8.172;2023-04-01T06:03:07;10.20;99.90
15815;DHT22;8008;50.024;8.172;2023-04-01T06:05:40;10.20;99.90
15815;DHT22;8008;50.024;8.172;2023-04-01T06:08:11;10.20;99.90
15815;DHT22;8008;50.024;8.172;2023-04-01T06:10:51;10.20;99.90
15815;DHT22;8008;50.024;8.172;2023-04-01T06:13:30;10.10;99.90
15815;DHT22;8008;50.024;8.172;2023-04-01T06:16:04;10.20;99.90
15815;DHT22;8008;50.024;8.172;2023-04-01T06:19:10;10.20;99.90
15815;DHT22;8008;50.024;8.172;2023-04-01T06:25:11;10.20;99.90
15815;DHT22;8008;50.024;8.172;2023-04-01T06:27:59;10.20;99.90
15815;DHT22;8008;50.024;8.172;2023-04-01T06:30:34;10.20;99.90
15815;DHT22;8008;50.024;8.172;2023-04-01T06:36:42;10.20;99.90
15815;DHT22;8008;50.024;8.172;2023-04-01T06:39:35;10.20;99.90
15815;DHT22;8008;50.024;8.172;2023-04-01T06:42:15;10.20;99.90
15815;DHT22;8008;50.024;8.172;2023-04-01T06:44:53;10.20;99.90
15815;DHT22;8008;50.024;8.172;2023-04-01T06:47:55;10.20;99.90
15815;DHT22;8008;50.024;8.172;2023-04-01T06:50:52;10.20;99.90
15815;DHT22;8008;50.024;8.172;2023-04-01T06:53:47;10.10;99.90
15815;DHT22;8008;50.024;8.172;2023-04-01T06:56:42;10.20;99.90
15815;DHT22;8008;50.024;8.172;2023-04-01T06:59:24;10.20;99.90
15815;DHT22;8008;50.024;8.172;2023-04-01T07:01:55;10.20;99.90
15815;DHT22;8008;50.024;8.172;2023-04-01T07:04:27;10.20;99.90
15815;DHT22;8008;50.024;8.172;2023-04-01T07:06:59;10.20;99.90
15815;DHT22;8008;50.024;8.172;2023-04-01T07:09:33;10.20;99.90
15815;DHT22;8008;50.024;8.172;2023-04-01T07:12:44;10.20;99.90
15815;DHT22;8008;50.024;8.172;2023-04-01T07:15:54;10.20;99.90
15815;DHT22;8008;50.024;8.172;2023-04-01T07:18:32;10.20;99.90
15815;DHT22;8008;50.024;8.172;2023-04-01T07:21:04;10.10;99.90
15815;DHT22;8008;50.024;8.172;2023-04-01T07:23:40;10.20;99.90
15815;DHT22;8008;50.024;8.172;2023-04-01T07:26:33;10.20;99.90
15815;DHT22;8008;50.024;8.172;2023-04-01T07:29:10;10.20;99.90
15815;DHT22;8008;50.024;8.172;2023-04-01T07:32:15;10.30;99.90
15815;DHT22;8008;50.024;8.172;2023-04-01T07:34:53;10.40;99.90
15815;DHT22;8008;50.024;8.172;2023-04-01T07:37:28;10.40;99.90
15815;DHT22;8008;50.024;8.172;2023-04-01T07:40:04;10.50;99.90
15815;DHT22;8008;50.024;8.172;2023-04-01T07:42:48;10.60;99.90
15815;DHT22;8008;50.024;8.172;2023-04-01T07:45:23;10.60;99.90
15815;DHT22;8008;50.024;8.172;2023-04-01T07:48:06;10.70;99.90
15815;DHT22;8008;50.024;8.172;2023-04-01T07:50:40;10.70;99.90
15815;DHT22;8008;50.024;8.172;2023-04-01T07:53:18;10.70;99.90
15815;DHT22;8008;50.024;8.172;2023-04-01T07:55:57;10.70;99.90
15815;DHT22;8008;50.024;8.172;2023-04-01T07:58:35;10.70;99.90
15815;DHT22;8008;50.024;8.172;2023-04-01T08:01:11;10.60;99.90
15815;DHT22;8008;50.024;8.172;2023-04-01T08:04:00;10.60;99.90
15815;DHT22;8008;50.024;8.172;2023-04-01T08:06:36;10.50;99.90
15815;DHT22;8008;50.024;8.172;2023-04-01T08:09:12;10.50;99.90
15815;DHT22;8008;50.024;8.172;2023-04-01T08:12:25;10.50;99.90
15815;DHT22;8008;50.024;8.172;2023-04-01T08:15:09;10.50;99.90
15815;DHT22;8008;50.024;8.172;2023-04-01T08:18:08;10.50;99.90
15815;DHT22;8008;50.024;8.172;2023-04-01T08:20:44;10.50;99.90
15815;DHT22;8008;50.024;8.172;2023-04-01T08:23:16;10.50;99.90
15815;DHT22;8008;50.024;8.172;2023-04-01T08:25:50;10.50;99.90
15815;DHT22;8008;50.024;8.172;2023-04-01T08:28:24;10.50;99.90
15815;DHT22;8008;50.024;8.172;2023-04-01T08:30:57;10.40;99.90
15815;DHT22;8008;50.024;8.172;2023-04-01T08:33:30;10.30;99.90
15815;DHT22;8008;50.024;8.172;2023-04-01T08:36:08;10.40;99.90
15815;DHT22;8008;50.024;8.172;2023-04-01T08:38:42;10.30;99.90
15815;DHT22;8008;50.024;8.172;2023-04-01T08:44:41;10.20;99.90
15815;DHT22;8008;50.024;8.172;2023-04-01T08:47:38;10.30;99.90
15815;DHT22;8008;50.024;8.172;2023-04-01T08:50:24;10.30;99.90
15815;DHT22;8008;50.024;8.172;2023-04-01T08:53:19;10.30;99.90
15815;DHT22;8008;50.024;8.172;2023-04-01T08:56:03;10.30;99.90
15815;DHT22;8008;50.024;8.172;2023-04-01T08:58:59;10.30;99.90
15815;DHT22;8008;50.024;8.172;2023-04-01T09:01:58;10.20;99.90
15815;DHT22;8008;50.024;8.172;2023-04-01T09:05:17;10.20;99.90
15815;DHT22;8008;50.024;8.172;2023-04-01T09:07:51;10.10;99.90
15815;DHT22;8008;50.024;8.172;2023-04-01T09:10:57;10.10;99.90
15815;DHT22;8008;50.024;8.172;2023-04-01T09:17:32;10.20;99.90
15815;DHT22;8008;50.024;8.172;2023-04-01T09:20:17;10.20;99.90
15815;DHT22;8008;50.024;8.172;2023-04-01T09:22:57;10.20;99.90
15815;DHT22;8008;50.024;8.172;2023-04-01T09:25:45;10.20;99.90
15815;DHT22;8008;50.024;8.172;2023-04-01T09:28:19;10.20;99.90
15815;DHT22;8008;50.024;8.172;2023-04-01T09:31:24;10.20;99.90
15815;DHT22;8008;50.024;8.172;2023-04-01T09:34:52;10.20;99.90
15815;DHT22;8008;50.024;8.172;2023-04-01T09:37:34;10.30;99.90
15815;DHT22;8008;50.024;8.172;2023-04-01T09:40:15;10.30;99.90
15815;DHT22;8008;50.024;8.172;2023-04-01T09:43:05;10.30;99.90
15815;DHT22;8008;50.024;8.172;2023-04-01T09:45:52;10.40;99.90
15815;DHT22;8008;50.024;8.172;2023-04-01T09:48:33;10.50;99.90
15815;DHT22;8008;50.024;8.172;2023-04-01T09:51:23;10.50;99.90
15815;DHT22;8008;50.024;8.172;2023-04-01T09:54:04;10.60;99.90
15815;DHT22;8008;50.024;8.172;2023-04-01T09:56:59;10.60;99.90
15815;DHT22;8008;50.024;8.172;2023-04-01T10:03:22;10.60;99.90
15815;DHT22;8008;50.024;8.172;2023-04-01T10:06:27;10.60;99.90
15815;DHT22;8008;50.024;8.172;2023-04-01T10:12:56;10.70;99.90
15815;DHT22;8008;50.024;8.172;2023-04-01T10:16:07;10.70;99.90
15815;DHT22;8008;50.024;8.172;2023-04-01T10:19:02;10.80;99.90
15815;DHT22;8008;50.024;8.172;2023-04-01T10:21:53;10.80;99.90
15815;DHT22;8008;50.024;8.172;2023-04-01T10:24:51;10.90;99.90
15815;DHT22;8008;50.024;8.172;2023-04-01T10:27:34;10.90;99.90
15815;DHT22;8008;50.024;8.172;2023-04-01T10:30:44;11.00;99.90
15815;DHT22;8008;50.024;8.172;2023-04-01T10:33:53;11.00;99.90
15815;DHT22;8008;50.024;8.172;2023-04-01T10:36:54;11.10;99.90
15815;DHT22;8008;50.024;8.172;2023-04-01T10:39:43;11.10;99.90
15815;DHT22;8008;50.024;8.172;2023-04-01T10:46:18;11.20;99.90
15815;DHT22;8008;50.024;8.172;2023-04-01T10:49:16;11.30;99.90
15815;DHT22;8008;50.024;8.172;2023-04-01T10:52:23;11.40;99.90
15815;DHT22;8008;50.024;8.172;2023-04-01T10:55:50;11.60;99.90
15815;DHT22;8008;50.024;8.172;2023-04-01T10:59:25;11.70;99.90
15815;DHT22;8008;50.024;8.172;2023-04-01T11:02:40;11.90;99.90
15815;DHT22;8008;50.024;8.172;2023-04-01T11:06:06;11.90;99.90
15815;DHT22;8008;50.024;8.172;2023-04-01T11:12:15;12.00;99.90
15815;DHT22;8008;50.024;8.172;2023-04-01T11:15:14;11.90;99.90
15815;DHT22;8008;50.024;8.172;2023-04-01T11:18:12;11.90;99.90
15815;DHT22;8008;50.024;8.172;2023-04-01T11:21:04;11.80;99.90
15815;DHT22;8008;50.024;8.172;2023-04-01T11:23:53;11.80;99.90
15815;DHT22;8008;50.024;8.172;2023-04-01T11:26:49;11.70;99.90
15815;DHT22;8008;50.024;8.172;2023-04-01T11:29:53;11.70;99.90
15815;DHT22;8008;50.024;8.172;2023-04-01T11:32:42;11.70;99.90
15815;DHT22;8008;50.024;8.172;2023-04-01T11:35:29;11.60;99.90
15815;DHT22;8008;50.024;8.172;2023-04-01T11:38:15;11.60;99.90
15815;DHT22;8008;50.024;8.172;2023-04-01T11:40:49;11.60;99.90
15815;DHT22;8008;50.024;8.172;2023-04-01T11:43:49;11.60;99.90
15815;DHT22;8008;50.024;8.172;2023-04-01T11:46:42;11.60;99.90
15815;DHT22;8008;50.024;8.172;2023-04-01T11:49:30;11.50;99.90
15815;DHT22;8008;50.024;8.172;2023-04-01T11:52:25;11.50;99.90
15815;DHT22;8008;50.024;8.172;2023-04-01T11:55:06;11.40;99.90
15815;DHT22;8008;50.024;8.172;2023-04-01T12:03:47;11.00;99.90
15815;DHT22;8008;50.024;8.172;2023-04-01T12:06:28;10.90;99.90
15815;DHT22;8008;50.024;8.172;2023-04-01T12:09:01;11.00;99.90
15815;DHT22;8008;50.024;8.172;2023-04-01T12:11:36;11.00;99.90
15815;DHT22;8008;50.024;8.172;2023-04-01T12:14:14;11.00;99.90
15815;DHT22;8008;50.024;8.172;2023-04-01T12:16:55;11.00;99.90
15815;DHT22;8008;50.024;8.172;2023-04-01T12:19:32;11.10;99.90
15815;DHT22;8008;50.024;8.172;2023-04-01T12:22:18;11.20;99.90
15815;DHT22;8008;50.024;8.172;2023-04-01T12:24:55;11.30;99.90
15815;DHT22;8008;50.024;8.172;2023-04-01T12:27:49;11.40;99.90
15815;DHT22;8008;50.024;8.172;2023-04-01T12:30:32;11.40;99.90
15815;DHT22;8008;50.024;8.172;2023-04-01T12:33:25;11.40;99.90
15815;DHT22;8008;50.024;8.172;2023-04-01T12:36:05;11.50;99.90
15815;DHT22;8008;50.024;8.172;2023-04-01T12:38:48;11.40;99.90
15815;DHT22;8008;50.024;8.172;2023-04-01T12:41:24;11.30;99.90
15815;DHT22;8008;50.024;8.172;2023-04-01T12:47:09;11.30;99.90
15815;DHT22;8008;50.024;8.172;2023-04-01T12:49:55;11.30;99.90
15815;DHT22;8008;50.024;8.172;2023-04-01T12:52:36;11.30;99.90
15815;DHT22;8008;50.024;8.172;2023-04-01T12:55:35;11.30;99.90
15815;DHT22;8008;50.024;8.172;2023-04-01T12:58:21;11.20;99.90
15815;DHT22;8008;50.024;8.172;2023-04-01T13:01:17;11.20;99.90
15815;DHT22;8008;50.024;8.172;2023-04-01T13:04:13;11.20;99.90
15815;DHT22;8008;50.024;8.172;2023-04-01T13:06:54;11.20;99.90
15815;DHT22;8008;50.024;8.172;2023-04-01T13:09:38;11.20;99.90
15815;DHT22;8008;50.024;8.172;2023-04-01T13:12:27;11.10;99.90
15815;DHT22;8008;50.024;8.172;2023-04-01T13:15:11;11.00;99.90
15815;DHT22;8008;50.024;8.172;2023-04-01T13:17:49;11.00;99.90
15815;DHT22;8008;50.024;8.172;2023-04-01T13:20:24;10.90;99.90
15815;DHT22;8008;50.024;8.172;2023-04-01T13:23:01;10.90;99.90
15815;DHT22;8008;50.024;8.172;2023-04-01T13:25:39;11.10;99.90
15815;DHT22;8008;50.024;8.172;2023-04-01T13:28:15;11.10;99.90
15815;DHT22;8008;50.024;8.172;2023-04-01T13:30:51;11.20;99.90
15815;DHT22;8008;50.024;8.172;2023-04-01T13:33:27;11.10;99.90
15815;DHT22;8008;50.024;8.172;2023-04-01T13:36:08;11.10;99.90
15815;DHT22;8008;50.024;8.172;2023-04-01T13:41:48;11.30;99.90
15815;DHT22;8008;50.024;8.172;2023-04-01T13:44:21;11.40;99.90
15815;DHT22;8008;50.024;8.172;2023-04-01T13:47:02;11.40;99.90
15815;DHT22;8008;50.024;8.172;2023-04-01T13:49:52;11.30;99.90
15815;DHT22;8008;50.024;8.172;2023-04-01T13:52:47;11.30;99.90
15815;DHT22;8008;50.024;8.172;2023-04-01T13:55:26;11.30;99.90
15815;DHT22;8008;50.024;8.172;2023-04-01T13:58:13;11.30;99.90
15815;DHT22;8008;50.024;8.172;2023-04-01T14:00:54;11.30;99.90
15815;DHT22;8008;50.024;8.172;2023-04-01T14:03:44;11.30;99.90
15815;DHT22;8008;50.024;8.172;2023-04-01T14:06:27;11.30;99.90
15815;DHT22;8008;50.024;8.172;2023-04-01T14:09:13;11.30;99.90
15815;DHT22;8008;50.024;8.172;2023-04-01T14:11:51;11.30;99.90
15815;DHT22;8008;50.024;8.172;2023-04-01T14:14:32;11.20;99.90
15815;DHT22;8008;50.024;8.172;2023-04-01T14:17:13;11.20;99.90
15815;DHT22;8008;50.024;8.172;2023-04-01T14:20:08;11.10;99.90
15815;DHT22;8008;50.024;8.172;2023-04-01T14:22:49;11.10;99.90
15815;DHT22;8008;50.024;8.172;2023-04-01T14:25:34;11.10;99.90
15815;DHT22;8008;50.024;8.172;2023-04-01T14:28:13;11.00;99.90
15815;DHT22;8008;50.024;8.172;2023-04-01T14:31:04;11.00;99.90
15815;DHT22;8008;50.024;8.172;2023-04-01T14:33:42;11.10;99.90
15815;DHT22;8008;50.024;8.172;2023-04-01T14:36:29;11.10;99.90
15815;DHT22;8008;50.024;8.172;2023-04-01T14:39:10;11.10;99.90
15815;DHT22;8008;50.024;8.172;2023-04-01T14:41:47;11.10;99.90
15815;DHT22;8008;50.024;8.172;2023-04-01T14:44:37;11.10;99.90
15815;DHT22;8008;50.024;8.172;2023-04-01T14:47:22;11.10;99.90
15815;DHT22;8008;50.024;8.172;2023-04-01T14:49:53;11.10;99.90
15815;DHT22;8008;50.024;8.172;2023-04-01T14:52:33;11.10;99.90
15815;DHT22;8008;50.024;8.172;2023-04-01T14:55:01;11.20;99.90
15815;DHT22;8008;50.024;8.172;2023-04-01T14:57:39;11.30;99.90
15815;DHT22;8008;50.024;8.172;2023-04-01T15:00:13;11.30;99.90
15815;DHT22;8008;50.024;8.172;2023-04-01T15:02:53;11.50;99.90
15815;DHT22;8008;50.024;8.172;2023-04-01T15:05:32;11.70;99.90
15815;DHT22;8008;50.024;8.172;2023-04-01T15:08:08;11.90;99.90
15815;DHT22;8008;50.024;8.172;2023-04-01T15:16:53;12.10;99.90
15815;DHT22;8008;50.024;8.172;2023-04-01T15:19:31;12.20;99.90
15815;DHT22;8008;50.024;8.172;2023-04-01T15:22:33;12.10;99.90
15815;DHT22;8008;50.024;8.172;2023-04-01T15:25:21;12.10;99.90
15815;DHT22;8008;50.024;8.172;2023-04-01T15:27:55;12.10;99.90
15815;DHT22;8008;50.024;8.172;2023-04-01T15:30:33;12.10;99.90
15815;DHT22;8008;50.024;8.172;2023-04-01T15:33:10;12.00;99.90
15815;DHT22;8008;50.024;8.172;2023-04-01T15:35:46;12.00;99.90
15815;DHT22;8008;50.024;8.172;2023-04-01T15:38:27;12.00;99.90
15815;DHT22;8008;50.024;8.172;2023-04-01T15:41:03;12.00;99.90
15815;DHT22;8008;50.024;8.172;2023-04-01T15:43:41;12.00;99.90
15815;DHT22;8008;50.024;8.172;2023-04-01T15:46:26;12.00;99.90
15815;DHT22;8008;50.024;8.172;2023-04-01T15:49:08;12.00;99.90
15815;DHT22;8008;50.024;8.172;2023-04-01T15:51:54;12.00;99.90
15815;DHT22;8008;50.024;8.172;2023-04-01T15:54:49;11.90;99.90
15815;DHT22;8008;50.024;8.172;2023-04-01T15:57:28;11.80;99.90
15815;DHT22;8008;50.024;8.172;2023-04-01T16:00:11;11.70;99.90
15815;DHT22;8008;50.024;8.172;2023-04-01T16:02:44;11.70;99.90
15815;DHT22;8008;50.024;8.172;2023-04-01T16:05:27;11.70;99.90
15815;DHT22;8008;50.024;8.172;2023-04-01T16:08:14;11.60;99.90
15815;DHT22;8008;50.024;8.172;2023-04-01T16:10:55;11.70;99.90
15815;DHT22;8008;50.024;8.172;2023-04-01T16:13:40;11.60;99.90
15815;DHT22;8008;50.024;8.172;2023-04-01T16:16:19;11.60;99.90
15815;DHT22;8008;50.024;8.172;2023-04-01T16:19:06;11.50;99.90
15815;DHT22;8008;50.024;8.172;2023-04-01T16:21:41;11.50;99.90
15815;DHT22;8008;50.024;8.172;2023-04-01T16:24:17;11.50;99.90
15815;DHT22;8008;50.024;8.172;2023-04-01T16:26:52;11.50;99.90
15815;DHT22;8008;50.024;8.172;2023-04-01T16:29:27;11.50;99.90
15815;DHT22;8008;50.024;8.172;2023-04-01T16:32:14;11.50;99.90
15815;DHT22;8008;50.024;8.172;2023-04-01T16:34:54;11.50;99.90
15815;DHT22;8008;50.024;8.172;2023-04-01T16:37:32;11.50;99.90
15815;DHT22;8008;50.024;8.172;2023-04-01T16:40:16;11.50;99.90
15815;DHT22;8008;50.024;8.172;2023-04-01T16:42:51;11.40;99.90
15815;DHT22;8008;50.024;8.172;2023-04-01T16:45:28;11.50;99.90
15815;DHT22;8008;50.024;8.172;2023-04-01T16:48:01;11.50;99.90
15815;DHT22;8008;50.024;8.172;2023-04-01T16:50:44;11.50;99.90
15815;DHT22;8008;50.024;8.172;2023-04-01T16:53:18;11.50;99.90
15815;DHT22;8008;50.024;8.172;2023-04-01T16:55:50;11.50;99.90
15815;DHT22;8008;50.024;8.172;2023-04-01T16:58:24;11.50;99.90
15815;DHT22;8008;50.024;8.172;2023-04-01T17:00:56;11.50;99.90
15815;DHT22;8008;50.024;8.172;2023-04-01T17:03:30;11.50;99.90
15815;DHT22;8008;50.024;8.172;2023-04-01T17:06:11;11.50;99.90
15815;DHT22;8008;50.024;8.172;2023-04-01T17:08:57;11.40;99.90
15815;DHT22;8008;50.024;8.172;2023-04-01T17:11:37;11.40;99.90
15815;DHT22;8008;50.024;8.172;2023-04-01T17:14:15;11.40;99.90
15815;DHT22;8008;50.024;8.172;2023-04-01T17:19:51;11.30;99.90
15815;DHT22;8008;50.024;8.172;2023-04-01T17:22:27;11.30;99.90
15815;DHT22;8008;50.024;8.172;2023-04-01T17:25:12;11.30;99.90
15815;DHT22;8008;50.024;8.172;2023-04-01T17:27:50;11.10;99.90
15815;DHT22;8008;50.024;8.172;2023-04-01T17:30:25;11.00;99.90
15815;DHT22;8008;50.024;8.172;2023-04-01T17:33:15;10.90;99.90
15815;DHT22;8008;50.024;8.172;2023-04-01T17:35:55;10.90;99.90
15815;DHT22;8008;50.024;8.172;2023-04-01T17:38:41;10.80;99.90
15815;DHT22;8008;50.024;8.172;2023-04-01T17:41:25;10.80;99.90
15815;DHT22;8008;50.024;8.172;2023-04-01T17:44:07;10.80;99.90
15815;DHT22;8008;50.024;8.172;2023-04-01T17:46:54;10.80;99.90
15815;DHT22;8008;50.024;8.172;2023-04-01T17:49:29;10.80;99.90
15815;DHT22;8008;50.024;8.172;2023-04-01T17:52:06;10.70;99.90
15815;DHT22;8008;50.024;8.172;2023-04-01T17:54:40;10.70;99.90
15815;DHT22;8008;50.024;8.172;2023-04-01T17:57:34;10.70;99.90
15815;DHT22;8008;50.024;8.172;2023-04-01T18:00:19;10.70;99.90
15815;DHT22;8008;50.024;8.172;2023-04-01T18:02:58;10.70;99.90
15815;DHT22;8008;50.024;8.172;2023-04-01T18:05:40;10.80;99.90
15815;DHT22;8008;50.024;8.172;2023-04-01T18:08:13;10.80;99.90
15815;DHT22;8008;50.024;8.172;2023-04-01T18:10:55;10.80;99.90
15815;DHT22;8008;50.024;8.172;2023-04-01T18:14:00;10.80;99.90
15815;DHT22;8008;50.024;8.172;2023-04-01T18:16:45;10.80;99.90
15815;DHT22;8008;50.024;8.172;2023-04-01T18:19:25;10.80;99.90
15815;DHT22;8008;50.024;8.172;2023-04-01T18:22:08;10.80;99.90
15815;DHT22;8008;50.024;8.172;2023-04-01T18:24:43;10.70;99.90
15815;DHT22;8008;50.024;8.172;2023-04-01T18:27:16;10.70;99.90
15815;DHT22;8008;50.024;8.172;2023-04-01T18:29:49;10.70;99.90
15815;DHT22;8008;50.024;8.172;2023-04-01T18:32:27;10.60;99.90
15815;DHT22;8008;50.024;8.172;2023-04-01T18:35:02;10.60;99.90
15815;DHT22;8008;50.024;8.172;2023-04-01T18:37:39;10.60;99.90
15815;DHT22;8008;50.024;8.172;2023-04-01T18:40:17;10.50;99.90
15815;DHT22;8008;50.024;8.172;2023-04-01T18:42:55;10.60;99.90
15815;DHT22;8008;50.024;8.172;2023-04-01T18:45:27;10.50;99.90
15815;DHT22;8008;50.024;8.172;2023-04-01T18:48:06;10.50;99.90
15815;DHT22;8008;50.024;8.172;2023-04-01T18:50:40;10.50;99.90
15815;DHT22;8008;50.024;8.172;2023-04-01T18:53:19;10.50;99.90
15815;DHT22;8008;50.024;8.172;2023-04-01T18:55:52;10.50;99.90
15815;DHT22;8008;50.024;8.172;2023-04-01T18:58:34;10.40;99.90
15815;DHT22;8008;50.024;8.172;2023-04-01T19:01:13;10.40;99.90
15815;DHT22;8008;50.024;8.172;2023-04-01T19:03:52;10.40;99.90
15815;DHT22;8008;50.024;8.172;2023-04-01T19:06:27;10.50;99.90
15815;DHT22;8008;50.024;8.172;2023-04-01T19:09:11;10.40;99.90
15815;DHT22;8008;50.024;8.172;2023-04-01T19:11:44;10.40;99.90
15815;DHT22;8008;50.024;8.172;2023-04-01T19:14:21;10.40;99.90
15815;DHT22;8008;50.024;8.172;2023-04-01T19:16:54;10.40;99.90
15815;DHT22;8008;50.024;8.172;2023-04-01T19:19:45;10.40;99.90
15815;DHT22;8008;50.024;8.172;2023-04-01T19:22:27;10.30;99.90
15815;DHT22;8008;50.024;8.172;2023-04-01T19:25:23;10.30;99.90
15815;DHT22;8008;50.024;8.172;2023-04-01T19:27:55;10.30;99.90
15815;DHT22;8008;50.024;8.172;2023-04-01T19:30:42;10.30;99.90
15815;DHT22;8008;50.024;8.172;2023-04-01T19:33:26;10.20;99.90
15815;DHT22;8008;50.024;8.172;2023-04-01T19:36:06;10.20;99.90
15815;DHT22;8008;50.024;8.172;2023-04-01T19:38:38;10.20;99.90
15815;DHT22;8008;50.024;8.172;2023-04-01T19:41:19;10.10;99.90
15815;DHT22;8008;50.024;8.172;2023-04-01T19:43:58;10.10;99.90
15815;DHT22;8008;50.024;8.172;2023-04-01T19:46:30;10.10;99.90
15815;DHT22;8008;50.024;8.172;2023-04-01T19:49:10;10.10;99.90
15815;DHT22;8008;50.024;8.172;2023-04-01T19:51:45;10.10;99.90
15815;DHT22;8008;50.024;8.172;2023-04-01T19:54:25;10.10;99.90
15815;DHT22;8008;50.024;8.172;2023-04-01T19:57:00;10.00;99.90
15815;DHT22;8008;50.024;8.172;2023-04-01T19:59:38;10.00;99.90
15815;DHT22;8008;50.024;8.172;2023-04-01T20:02:33;10.00;99.90
15815;DHT22;8008;50.024;8.172;2023-04-01T20:05:21;10.00;99.90
15815;DHT22;8008;50.024;8.172;2023-04-01T20:07:57;10.00;99.90
15815;DHT22;8008;50.024;8.172;2023-04-01T20:10:32;9.90;99.90
15815;DHT22;8008;50.024;8.172;2023-04-01T20:13:06;9.90;99.90
15815;DHT22;8008;50.024;8.172;2023-04-01T20:15:39;9.90;99.90
15815;DHT22;8008;50.024;8.172;2023-04-01T20:18:14;9.90;99.90
15815;DHT22;8008;50.024;8.172;2023-04-01T20:20:54;9.90;99.90
15815;DHT22;8008;50.024;8.172;2023-04-01T20:23:41;9.90;99.90
15815;DHT22;8008;50.024;8.172;2023-04-01T20:26:11;9.80;99.90
15815;DHT22;8008;50.024;8.172;2023-04-01T20:28:47;9.80;99.90
15815;DHT22;8008;50.024;8.172;2023-04-01T20:31:24;9.80;99.90
15815;DHT22;8008;50.024;8.172;2023-04-01T20:34:19;9.80;99.90
15815;DHT22;8008;50.024;8.172;2023-04-01T20:37:00;9.90;99.90
15815;DHT22;8008;50.024;8.172;2023-04-01T20:39:52;9.80;99.90
15815;DHT22;8008;50.024;8.172;2023-04-01T20:42:29;9.90;99.90
15815;DHT22;8008;50.024;8.172;2023-04-01T20:45:20;9.90;99.90
15815;DHT22;8008;50.024;8.172;2023-04-01T20:48:03;9.90;99.90
15815;DHT22;8008;50.024;8.172;2023-04-01T20:50:39;10.00;99.90
15815;DHT22;8008;50.024;8.172;2023-04-01T20:53:14;10.00;99.90
15815;DHT22;8008;50.024;8.172;2023-04-01T20:56:11;10.00;99.90
15815;DHT22;8008;50.024;8.172;2023-04-01T20:58:49;10.00;99.90
15815;DHT22;8008;50.024;8.172;2023-04-01T21:01:29;10.00;99.90
15815;DHT22;8008;50.024;8.172;2023-04-01T21:04:14;10.00;99.90